Forside
METAR-TAF:

METAR-TAF

Lufthavne :

Litchfield Municipal Airport

Litchfield, Illinois, USA

Breddekreds: 39-09-44N, længdekreds: 089-40-28W, højde: 210 m

Aktuelle vejr

Denne rapport blev lavet for 16 minutter siden, kl. 17:55 UTC
Vind 15 kt fra østsydøst med vindstød på up til 20 kt
Temperatur -6°C
Fugtighed 62%
Tryk 1031 hPa
Sigt: 16.1 km
Spredte skyer i en højde af 11000 ft

METAR: K3LF 211755Z AUTO 12015G20KT 10SM SCT110 M06/M12 A3046 RMK AO2 T10651116 11064 21121

Tid: 12:11 (18:11 UTC)


TAF: fraværende

Vejrobservationer og prognoser fra mere end 4000 lufthavne (METAR og TAF).

De gule og røde prikker repræsenterer de meteorologiske stationer.

Flyt musen over at se navnet på stationen.

Så klik over at se vejr observationer og prognoser.

At skifte det kort: Klik på de grønne knapper med et sort kors for at zoome ind; på den grønne knap med en bindestreg for at zoome ud; eller på de grønne pile for tilstødende kort.


METAR-TAF: